Historique des stations

Station météo de La Marche

Altitude de la station : 186 m







Données météorologiques pour le 06/03/2021
Date
Heure
Températures Humidité Point de rosée Vitesse
du vent
Direction Rafales Windchill Pression Pluviométrie
Cumul
Date
Heure
Températures Humidité Point de rosée Vitesse
du vent
Direction Rafales Windchill Pression Pluviométrie
Cumul
06/03/2021 11:156.7 °C67 %1.1 °C13 km/hN31 km/h3.9 1026 hPa-
06/03/2021 11:006.7 °C67 %1.1 °C5 km/hNE31 km/h6.1 1026 hPa-
06/03/2021 10:455.8 °C70 %0.6 °C6 km/hE31 km/h5.0 1026 hPa-
06/03/2021 10:305.2 °C71 %0.6 °C8 km/hN31 km/h2.8 1026 hPa-
06/03/2021 10:145.0 °C74 %0.6 °C5 km/hNE31 km/h4.4 1026 hPa-
06/03/2021 09:594.2 °C77 %0.6 °C8 km/hNE31 km/h2.2 1026 hPa-
06/03/2021 09:443.6 °C79 %0.0 °C10 km/hNNE31 km/h0.6 1026 hPa-
06/03/2021 09:293.0 °C81 %0.0 °C10 km/hNNO31 km/h0.0 1026 hPa-
06/03/2021 09:142.3 °C83 %-0.6 °C13 km/hN31 km/h-1.1 1026 hPa-
06/03/2021 08:591.7 °C86 %-0.6 °C8 km/hNNE31 km/h-1.1 1026 hPa-
06/03/2021 08:441.2 °C87 %-0.6 °C5 km/hNNO31 km/h0.0 1026 hPa-
06/03/2021 08:290.7 °C88 %-1.1 °C3 km/hN31 km/h-0.6 1026 hPa-
06/03/2021 08:140.0 °C89 %-1.7 °C-N31 km/h0.0 1026 hPa-
06/03/2021 07:59-0.3 °C89 %-1.7 °C6 km/hN31 km/h-2.2 1026 hPa-
06/03/2021 07:44-0.5 °C88 %-2.2 °C10 km/hN31 km/h-3.3 1026 hPa-
06/03/2021 07:29-0.4 °C88 %-2.2 °C6 km/hNNO31 km/h-2.2 1026 hPa-
06/03/2021 07:14-0.4 °C88 %-2.2 °C6 km/hNNO31 km/h-2.2 1025 hPa-
06/03/2021 06:59-0.4 °C88 %-2.2 °C10 km/hN31 km/h-3.3 1025 hPa-
06/03/2021 06:44-0.4 °C88 %-2.2 °C5 km/hN31 km/h-1.7 1025 hPa-
06/03/2021 06:29-0.4 °C88 %-2.2 °C6 km/hNO31 km/h-2.2 1025 hPa-
06/03/2021 06:14-0.4 °C88 %-2.2 °C8 km/hN31 km/h-3.3 1025 hPa-
06/03/2021 05:59-0.3 °C88 %-2.2 °C3 km/hNO31 km/h-1.7 1025 hPa-
06/03/2021 05:44-0.3 °C88 %-2.2 °C8 km/hNNO31 km/h-3.3 1025 hPa-
06/03/2021 05:29-0.3 °C87 %-2.2 °C13 km/hNNO31 km/h-3.9 1025 hPa-
06/03/2021 05:14-0.2 °C87 %-2.2 °C13 km/hNNO31 km/h-3.3 1025 hPa-
06/03/2021 04:59-0.2 °C86 %-2.2 °C10 km/hNNO31 km/h-2.8 1025 hPa-
06/03/2021 04:440.0 °C85 %-2.2 °C8 km/hNNO31 km/h-2.8 1025 hPa-
06/03/2021 04:290.3 °C84 %-2.2 °C5 km/hN31 km/h-0.6 1025 hPa-
06/03/2021 04:140.6 °C83 %-1.7 °C13 km/hNNO31 km/h-2.8 1025 hPa-
06/03/2021 03:591.3 °C81 %-1.7 °C8 km/hN31 km/h-1.7 1025 hPa-
06/03/2021 03:441.7 °C80 %-1.1 °C8 km/hN31 km/h-1.1 1025 hPa-
06/03/2021 03:302.1 °C79 %-1.1 °C19 km/hNNE31 km/h-2.2 1025 hPa-
06/03/2021 03:152.3 °C78 %-1.1 °C19 km/hNNE31 km/h-2.2 1025 hPa-
06/03/2021 03:002.6 °C77 %-1.1 °C18 km/hNNE31 km/h-1.1 1025 hPa-
06/03/2021 02:452.8 °C77 %-1.1 °C19 km/hNE29 km/h-1.7 1025 hPa-
06/03/2021 02:302.8 °C77 %-0.6 °C18 km/hNNE27 km/h-1.1 1025 hPa-
06/03/2021 02:152.7 °C77 %-1.1 °C18 km/hNNE27 km/h-1.1 1025 hPa-
06/03/2021 02:002.8 °C77 %-0.6 °C19 km/hN27 km/h-1.7 1025 hPa-
06/03/2021 01:453.1 °C76 %-0.6 °C18 km/hN27 km/h-0.6 1025 hPa-
06/03/2021 01:303.1 °C76 %-0.6 °C27 km/hNE27 km/h-1.7 1025 hPa-
06/03/2021 01:152.7 °C77 %-1.1 °C14 km/hNNE26 km/h-0.6 1025 hPa-
06/03/2021 01:002.5 °C77 %-1.1 °C16 km/hNNE24 km/h-1.1 1026 hPa-
06/03/2021 00:452.7 °C76 %-1.1 °C16 km/hN23 km/h-1.1 1026 hPa-
06/03/2021 00:292.9 °C75 %-1.1 °C14 km/hN23 km/h-0.6 1026 hPa-
06/03/2021 00:142.8 °C76 %-1.1 °C11 km/hN18 km/h0.0 1026 hPa-


Minima :

Température : -0.5 °C
Humidité : 67 %
Point de rosée : -2.2 °C
Vent moyen : 3 km/h
Windchill : -3.9
Pression atm. : 1025 hPa
Maxima :

Température : 6.7 °C
Humidité : 89 %
Point de rosée : 1.1 °C
Vent moyen : 27 km/h
Windchill : 6.1
Pression atm. : 1026 hPa
Rafales max : 31 km/h
Cumul de pluie sur 24H : 0 mm

La Marche est une commune du département Nièvre (58).
La station météorologique du réseau de l'association la plus proche de La Marche est celle de Gron



Icône Facebook Association Météo Centre Icône Twitter Association Météo Centre Icône Chaîne Youtube Association Météo Centre Icône contact Association Météo Centre Icône Insta Association Météo Centre